createdAt,value
2023-09-13T00:01:32.010Z,16.85
2023-09-13T00:03:59.576Z,17.02
2023-09-13T00:06:26.379Z,14.93
2023-09-13T00:08:53.026Z,12.77
2023-09-13T00:11:19.655Z,13.27
2023-09-13T00:13:46.302Z,14.95
2023-09-13T00:16:13.228Z,15.00
2023-09-13T00:18:40.101Z,15.70
2023-09-13T00:21:10.119Z,13.50
2023-09-13T00:23:36.792Z,11.52
2023-09-13T00:26:06.234Z,13.45
2023-09-13T00:28:33.323Z,12.85
2023-09-13T00:31:00.200Z,14.90
2023-09-13T00:33:27.062Z,14.57
2023-09-13T00:35:57.664Z,15.45
2023-09-13T00:38:24.338Z,11.55
2023-09-13T00:40:51.237Z,14.38
2023-09-13T00:43:18.055Z,14.02
2023-09-13T00:45:45.396Z,14.48
2023-09-13T00:48:15.201Z,13.15
2023-09-13T00:53:19.165Z,16.33
2023-09-13T00:55:47.990Z,14.45
2023-09-13T00:58:14.823Z,17.73
2023-09-13T01:00:41.619Z,11.60
2023-09-13T01:03:08.505Z,14.30
2023-09-13T01:05:36.703Z,11.07
2023-09-13T01:08:04.431Z,12.02
2023-09-13T01:10:31.262Z,14.60
2023-09-13T01:12:58.102Z,14.45
2023-09-13T01:15:28.823Z,15.60
2023-09-13T01:18:04.588Z,13.18
2023-09-13T01:20:31.497Z,12.25
2023-09-13T01:23:23.756Z,15.80
2023-09-13T01:26:04.950Z,17.20
2023-09-13T01:28:35.626Z,15.38
2023-09-13T01:31:06.804Z,17.00
2023-09-13T01:33:33.713Z,15.00
2023-09-13T01:36:01.033Z,14.10
2023-09-13T01:38:28.604Z,16.73
2023-09-13T01:41:03.297Z,12.00
2023-09-13T01:43:31.083Z,14.93
2023-09-13T01:45:58.613Z,14.15
2023-09-13T01:48:25.818Z,17.25
2023-09-13T01:50:54.267Z,12.52
2023-09-13T01:53:21.150Z,13.80
2023-09-13T01:55:48.029Z,20.48
2023-09-13T01:58:14.908Z,13.93
2023-09-13T02:00:42.243Z,15.73
2023-09-13T02:03:09.016Z,21.35
2023-09-13T02:05:35.724Z,15.05
2023-09-13T02:08:02.541Z,18.10
2023-09-13T02:10:29.251Z,14.35
2023-09-13T02:12:55.960Z,18.20
2023-09-13T02:15:22.793Z,15.95
2023-09-13T02:17:49.476Z,12.00
2023-09-13T02:20:16.236Z,19.40
2023-09-13T02:22:43.130Z,13.23
2023-09-13T02:25:10.005Z,12.57
2023-09-13T02:27:36.752Z,14.52
2023-09-13T02:30:09.878Z,13.80
2023-09-13T02:32:36.669Z,15.75
2023-09-13T02:35:03.907Z,13.52
2023-09-13T02:37:30.623Z,15.77
2023-09-13T02:39:59.429Z,17.83
2023-09-13T02:42:26.299Z,19.75
2023-09-13T02:44:53.034Z,13.95
2023-09-13T02:47:19.795Z,15.13
2023-09-13T02:49:46.594Z,15.75
2023-09-13T02:52:13.347Z,14.55
2023-09-13T02:54:40.252Z,14.52
2023-09-13T02:57:08.314Z,19.30
2023-09-13T02:59:35.040Z,19.48
2023-09-13T03:02:01.938Z,16.27
2023-09-13T03:04:29.517Z,18.45
2023-09-13T03:06:56.375Z,16.05
2023-09-13T03:09:23.193Z,18.80
2023-09-13T03:11:49.975Z,18.85
2023-09-13T03:14:16.844Z,19.95
2023-09-13T03:16:43.669Z,28.73
2023-09-13T03:19:11.937Z,18.48
2023-09-13T03:21:38.799Z,20.40
2023-09-13T03:24:06.650Z,21.60
2023-09-13T03:26:34.830Z,23.83
2023-09-13T03:29:01.632Z,22.02
2023-09-13T03:31:29.280Z,18.92
2023-09-13T03:33:57.332Z,24.30
2023-09-13T03:36:26.415Z,21.30
2023-09-13T03:38:53.201Z,19.08
2023-09-13T03:41:21.255Z,25.17
2023-09-13T03:43:48.495Z,24.55
2023-09-13T03:46:15.432Z,20.08
2023-09-13T03:48:42.256Z,22.70
2023-09-13T03:51:09.482Z,21.65
2023-09-13T03:53:37.025Z,22.55
2023-09-13T03:56:04.774Z,21.10
2023-09-13T03:58:31.690Z,24.38
2023-09-13T04:00:58.839Z,22.08
2023-09-13T04:03:25.872Z,19.45
2023-09-13T04:05:53.033Z,18.33
2023-09-13T04:08:19.992Z,20.08
2023-09-13T04:10:46.803Z,19.17
2023-09-13T04:13:13.689Z,20.42
2023-09-13T04:15:43.405Z,24.30
2023-09-13T04:18:10.187Z,21.00
2023-09-13T04:20:36.952Z,17.92
2023-09-13T04:23:03.811Z,18.52
2023-09-13T04:25:30.657Z,17.65
2023-09-13T04:27:57.383Z,17.52
2023-09-13T04:30:24.232Z,22.45
2023-09-13T04:32:51.008Z,20.30
2023-09-13T04:35:18.578Z,20.02
2023-09-13T04:37:45.342Z,20.58
2023-09-13T04:40:14.676Z,23.38
2023-09-13T04:42:55.665Z,21.55
2023-09-13T04:45:23.308Z,21.73
2023-09-13T04:47:50.395Z,27.08
2023-09-13T04:50:17.270Z,17.55
2023-09-13T04:52:44.205Z,25.85
2023-09-13T04:55:11.078Z,17.70
2023-09-13T04:57:37.961Z,17.38
2023-09-13T05:00:12.606Z,19.92
2023-09-13T05:02:39.805Z,18.65
2023-09-13T05:05:07.468Z,22.52
2023-09-13T05:07:34.256Z,19.10
2023-09-13T05:10:01.158Z,20.45
2023-09-13T05:12:27.906Z,19.48
2023-09-13T05:14:54.609Z,21.75
2023-09-13T05:17:21.344Z,20.48
2023-09-13T05:19:48.136Z,18.63
2023-09-13T05:22:15.211Z,16.08
2023-09-13T05:24:42.034Z,15.82
2023-09-13T05:27:08.750Z,19.92
2023-09-13T05:29:35.439Z,17.65
2023-09-13T05:32:02.397Z,18.92
2023-09-13T05:34:29.437Z,20.23
2023-09-13T05:36:56.888Z,20.27
2023-09-13T05:39:23.748Z,20.05
2023-09-13T05:41:51.223Z,16.95
2023-09-13T05:44:26.337Z,14.88
2023-09-13T05:46:56.218Z,16.35
2023-09-13T05:49:23.058Z,16.13
2023-09-13T05:51:50.686Z,16.40
2023-09-13T05:54:17.660Z,16.35
2023-09-13T05:56:45.208Z,17.50
2023-09-13T05:59:11.949Z,13.88
2023-09-13T06:01:38.828Z,12.05
2023-09-13T06:04:07.463Z,21.08
2023-09-13T06:06:35.353Z,13.13
2023-09-13T06:09:05.072Z,14.15
2023-09-13T06:11:32.718Z,15.15
2023-09-13T06:13:59.580Z,26.65
2023-09-13T06:16:26.536Z,18.95
2023-09-13T06:18:53.991Z,14.70
2023-09-13T06:21:20.746Z,16.17
2023-09-13T06:23:48.848Z,15.10
2023-09-13T06:26:15.855Z,10.85
2023-09-13T06:28:42.953Z,19.17
2023-09-13T06:31:23.063Z,15.77
2023-09-13T06:33:56.812Z,11.55
2023-09-13T06:36:24.339Z,14.73
2023-09-13T06:38:52.256Z,13.30
2023-09-13T06:41:19.104Z,15.40
2023-09-13T06:44:05.580Z,21.95
2023-09-13T06:46:37.624Z,12.98
2023-09-13T06:49:05.377Z,18.23
2023-09-13T06:54:05.886Z,14.18
2023-09-13T06:56:34.087Z,19.15
2023-09-13T06:59:06.320Z,19.17
2023-09-13T07:04:08.587Z,12.82
2023-09-13T07:06:36.356Z,17.80
2023-09-13T07:09:04.774Z,17.35
2023-09-13T07:11:31.583Z,15.55
2023-09-13T07:13:59.673Z,16.50
2023-09-13T07:16:27.440Z,16.20
2023-09-13T07:18:56.163Z,15.15
2023-09-13T07:21:23.032Z,16.92
2023-09-13T07:23:49.812Z,18.45
2023-09-13T07:26:17.143Z,15.70
2023-09-13T07:28:46.610Z,16.33
2023-09-13T07:31:14.061Z,15.15
2023-09-13T07:33:40.872Z,18.00
2023-09-13T07:36:07.694Z,11.75
2023-09-13T07:38:36.195Z,13.05
2023-09-13T07:41:03.048Z,15.82
2023-09-13T07:43:29.789Z,12.30
2023-09-13T07:45:56.720Z,13.50
2023-09-13T07:48:24.494Z,13.73
2023-09-13T07:50:51.274Z,13.73
2023-09-13T07:53:18.128Z,15.13
2023-09-13T07:55:44.813Z,12.57
2023-09-13T07:58:11.473Z,13.43
2023-09-13T08:00:38.468Z,16.33
2023-09-13T08:03:05.932Z,16.63
2023-09-13T08:05:32.824Z,13.68
2023-09-13T08:08:00.336Z,12.70
2023-09-13T08:10:27.359Z,17.88
2023-09-13T08:12:56.158Z,16.17
2023-09-13T08:15:30.818Z,17.27
2023-09-13T08:18:05.623Z,11.13
2023-09-13T08:20:32.645Z,15.18
2023-09-13T08:22:59.482Z,15.55
2023-09-13T08:25:26.553Z,11.63
2023-09-13T08:27:53.428Z,13.15
2023-09-13T08:30:23.039Z,19.48
2023-09-13T08:32:49.789Z,10.05
2023-09-13T08:35:16.974Z,14.55
2023-09-13T08:37:43.930Z,15.45
2023-09-13T08:40:12.364Z,15.43
2023-09-13T08:42:41.542Z,12.00
2023-09-13T08:45:08.498Z,16.42
2023-09-13T08:47:55.122Z,12.63
2023-09-13T08:50:27.535Z,13.55
2023-09-13T08:52:54.862Z,13.98
2023-09-13T08:55:22.128Z,12.45
2023-09-13T08:57:49.147Z,12.50
2023-09-13T09:00:17.142Z,10.80
2023-09-13T09:02:44.527Z,10.38
2023-09-13T09:05:12.832Z,13.00
2023-09-13T09:07:41.535Z,11.50
2023-09-13T09:10:12.747Z,13.13
2023-09-13T09:12:44.958Z,10.35
2023-09-13T09:15:13.073Z,9.43
2023-09-13T09:17:41.087Z,10.57
2023-09-13T09:20:08.801Z,16.60
2023-09-13T09:22:35.859Z,8.57
2023-09-13T09:25:03.917Z,10.30
2023-09-13T09:27:30.667Z,7.55
2023-09-13T09:30:01.960Z,8.88
2023-09-13T09:32:31.922Z,9.07
2023-09-13T09:35:01.968Z,10.13
2023-09-13T09:37:34.650Z,7.78
2023-09-13T09:40:02.286Z,8.63
2023-09-13T09:42:30.590Z,11.68
2023-09-13T09:44:57.717Z,7.53
2023-09-13T09:47:25.004Z,10.15
2023-09-13T09:49:52.250Z,15.45
2023-09-13T09:52:20.608Z,13.73
2023-09-13T09:54:48.950Z,8.10
2023-09-13T09:57:27.649Z,10.68
2023-09-13T09:59:54.437Z,8.88
2023-09-13T10:02:30.368Z,15.38
2023-09-13T10:05:01.076Z,9.48
2023-09-13T10:07:27.803Z,8.35
2023-09-13T10:09:56.664Z,9.40
2023-09-13T10:12:23.304Z,10.75
2023-09-13T10:14:50.016Z,10.88
2023-09-13T10:17:18.406Z,8.02
2023-09-13T10:19:48.240Z,8.00
2023-09-13T10:22:15.962Z,13.00
2023-09-13T10:24:50.422Z,9.57
2023-09-13T10:27:19.208Z,7.68
2023-09-13T10:29:48.991Z,8.32
2023-09-13T10:32:16.840Z,9.73
2023-09-13T10:35:05.157Z,8.23
2023-09-13T10:37:57.709Z,7.95
2023-09-13T10:40:26.274Z,5.60
2023-09-13T10:42:54.094Z,14.18
2023-09-13T10:45:23.897Z,5.82
2023-09-13T10:47:51.962Z,10.07
2023-09-13T10:50:23.151Z,7.43
2023-09-13T10:52:50.982Z,7.22
2023-09-13T10:55:18.082Z,7.15
2023-09-13T10:57:45.018Z,5.00
2023-09-13T11:00:13.389Z,4.82
2023-09-13T11:02:45.215Z,8.73
2023-09-13T11:05:13.020Z,7.13
2023-09-13T11:07:48.280Z,6.65
2023-09-13T11:10:19.546Z,5.85
2023-09-13T11:12:52.764Z,7.32
2023-09-13T11:15:27.080Z,5.65
2023-09-13T11:17:55.370Z,13.93
2023-09-13T11:20:26.136Z,8.63
2023-09-13T11:23:07.238Z,8.18
2023-09-13T11:25:58.418Z,12.85
2023-09-13T11:28:40.114Z,9.40
2023-09-13T11:31:11.144Z,9.43
2023-09-13T11:33:45.964Z,7.53
2023-09-13T11:38:39.849Z,7.85
2023-09-13T11:41:06.832Z,8.85
2023-09-13T11:43:37.835Z,5.95
2023-09-13T11:46:05.778Z,7.88
2023-09-13T11:48:54.818Z,10.60
2023-09-13T11:51:25.684Z,7.82
2023-09-13T11:53:53.147Z,8.13
2023-09-13T11:56:51.256Z,6.97
2023-09-13T12:01:56.644Z,7.88
2023-09-13T12:06:59.806Z,6.90
2023-09-13T12:09:30.747Z,7.53
2023-09-13T12:12:02.009Z,8.38
2023-09-13T12:14:57.096Z,7.13
2023-09-13T12:17:20.606Z,6.80
2023-09-13T12:19:48.715Z,11.43
2023-09-13T12:22:17.493Z,10.15
2023-09-13T12:24:53.748Z,9.07
2023-09-13T12:27:20.894Z,7.47
2023-09-13T12:29:52.779Z,7.88
2023-09-13T12:32:19.495Z,8.48
2023-09-13T12:34:48.970Z,9.05
2023-09-13T12:37:16.288Z,6.68
2023-09-13T12:39:43.643Z,8.68
2023-09-13T12:42:10.624Z,9.75
2023-09-13T12:44:38.704Z,7.57
2023-09-13T12:47:06.570Z,7.15
2023-09-13T12:49:39.378Z,8.68
2023-09-13T12:52:06.507Z,6.70
2023-09-13T12:54:37.197Z,9.10
2023-09-13T12:57:04.414Z,8.50
2023-09-13T12:59:48.155Z,12.63
2023-09-13T13:02:21.156Z,6.78
2023-09-13T13:04:48.648Z,9.10
2023-09-13T13:07:24.529Z,14.25
2023-09-13T13:09:53.046Z,10.60
2023-09-13T13:12:19.863Z,8.95
2023-09-13T13:14:52.877Z,11.10
2023-09-13T13:17:26.001Z,6.10
2023-09-13T13:19:57.489Z,7.85
2023-09-13T13:22:25.905Z,9.57
2023-09-13T13:24:53.922Z,6.95
2023-09-13T13:27:21.273Z,7.72
2023-09-13T13:29:49.353Z,5.50
2023-09-13T13:32:16.648Z,7.88
2023-09-13T13:34:43.795Z,6.72
2023-09-13T13:37:14.341Z,10.23
2023-09-13T13:39:41.282Z,8.23
2023-09-13T13:42:08.057Z,8.20
2023-09-13T13:44:35.985Z,8.18
2023-09-13T13:47:09.063Z,5.47
2023-09-13T13:49:36.481Z,5.97
2023-09-13T13:52:03.476Z,12.30
2023-09-13T13:54:30.374Z,7.00
2023-09-13T13:56:57.080Z,8.40
2023-09-13T13:59:23.845Z,6.50
2023-09-13T14:01:50.654Z,7.30
2023-09-13T14:04:17.607Z,13.07
2023-09-13T14:06:47.585Z,7.07
2023-09-13T14:09:17.638Z,7.22
2023-09-13T14:11:44.394Z,6.03
2023-09-13T14:14:15.121Z,9.13
2023-09-13T14:16:45.105Z,9.77
2023-09-13T14:19:12.868Z,6.15
2023-09-13T14:21:46.396Z,8.40
2023-09-13T14:24:13.406Z,9.30
2023-09-13T14:26:40.269Z,6.82
2023-09-13T14:29:08.937Z,14.75
2023-09-13T14:31:38.388Z,8.65
2023-09-13T14:34:07.738Z,10.52
2023-09-13T14:36:34.892Z,6.25
2023-09-13T14:39:01.800Z,9.60
2023-09-13T14:41:30.188Z,8.63
2023-09-13T14:43:56.861Z,11.88
2023-09-13T14:46:23.872Z,10.13
2023-09-13T14:48:54.395Z,21.83
2023-09-13T14:51:21.862Z,10.85
2023-09-13T14:53:48.695Z,7.82
2023-09-13T14:56:15.410Z,6.38
2023-09-13T14:58:42.758Z,7.10
2023-09-13T15:01:09.801Z,11.88
2023-09-13T15:03:38.084Z,10.80
2023-09-13T15:06:05.157Z,6.57
2023-09-13T15:08:31.886Z,9.32
2023-09-13T15:10:58.732Z,11.70
2023-09-13T15:13:25.426Z,10.18
2023-09-13T15:15:52.749Z,6.15
2023-09-13T15:18:19.935Z,13.15
2023-09-13T15:20:47.634Z,12.73
2023-09-13T15:23:14.433Z,11.55
2023-09-13T15:25:41.187Z,9.13
2023-09-13T15:28:08.025Z,10.18
2023-09-13T15:30:34.796Z,12.57
2023-09-13T15:33:01.620Z,9.13
2023-09-13T15:35:28.847Z,10.68
2023-09-13T15:37:55.695Z,15.70
2023-09-13T15:40:22.429Z,10.30
2023-09-13T15:42:49.372Z,12.15
2023-09-13T15:45:19.494Z,10.93
2023-09-13T15:47:48.973Z,13.48
2023-09-13T15:50:15.782Z,11.55
2023-09-13T15:52:42.781Z,8.07
2023-09-13T15:55:10.399Z,13.55
2023-09-13T15:57:37.112Z,11.88
2023-09-13T16:00:04.665Z,9.90
2023-09-13T16:02:33.792Z,10.30
2023-09-13T16:05:00.613Z,12.98
2023-09-13T16:07:31.645Z,12.15
2023-09-13T16:09:58.342Z,12.25
2023-09-13T16:12:25.088Z,9.68
2023-09-13T16:14:51.825Z,13.13
2023-09-13T16:17:18.656Z,11.20
2023-09-13T16:19:45.475Z,10.23
2023-09-13T16:22:12.138Z,14.00
2023-09-13T16:24:38.899Z,16.33
2023-09-13T16:27:05.702Z,14.90
2023-09-13T16:29:32.921Z,14.82
2023-09-13T16:32:00.444Z,17.08
2023-09-13T16:34:27.379Z,13.07
2023-09-13T16:36:54.588Z,14.13
2023-09-13T16:39:22.129Z,14.02
2023-09-13T16:41:49.346Z,12.90
2023-09-13T16:44:16.625Z,13.00
2023-09-13T16:46:46.882Z,9.48
2023-09-13T16:49:14.439Z,10.95
2023-09-13T16:51:42.125Z,13.70
2023-09-13T16:54:08.873Z,14.68
2023-09-13T16:56:35.546Z,14.98
2023-09-13T16:59:02.235Z,12.40
2023-09-13T17:01:29.040Z,14.52
2023-09-13T17:03:55.929Z,13.85
2023-09-13T17:06:24.899Z,13.05
2023-09-13T17:08:51.537Z,10.82
2023-09-13T17:11:19.796Z,10.38
2023-09-13T17:13:47.488Z,11.88
2023-09-13T17:16:14.614Z,9.90
2023-09-13T17:18:41.384Z,11.90
2023-09-13T17:21:08.185Z,10.15
2023-09-13T17:23:34.999Z,13.25
2023-09-13T17:26:01.995Z,9.07
2023-09-13T17:28:38.047Z,12.00
2023-09-13T17:31:04.986Z,11.90
2023-09-13T17:33:31.778Z,11.63
2023-09-13T17:35:59.010Z,11.70
2023-09-13T17:38:25.774Z,12.57
2023-09-13T17:40:52.579Z,9.85
2023-09-13T17:43:19.331Z,10.57
2023-09-13T17:45:46.251Z,8.60
2023-09-13T17:48:13.043Z,10.38
2023-09-13T17:50:40.266Z,12.32
2023-09-13T17:53:07.835Z,12.25
2023-09-13T17:55:34.995Z,9.90
2023-09-13T17:58:02.085Z,12.23
2023-09-13T18:00:29.229Z,11.98
2023-09-13T18:02:56.523Z,10.98
2023-09-13T18:05:23.575Z,11.05
2023-09-13T18:07:56.122Z,11.57
2023-09-13T18:10:23.015Z,13.38
2023-09-13T18:12:49.836Z,9.98
2023-09-13T18:15:16.699Z,13.05
2023-09-13T18:17:52.649Z,13.00
2023-09-13T18:20:20.920Z,17.23
2023-09-13T18:22:47.720Z,15.07
2023-09-13T18:25:14.532Z,18.65
2023-09-13T18:27:43.898Z,12.93
2023-09-13T18:30:12.257Z,16.95
2023-09-13T18:32:39.182Z,17.30
2023-09-13T18:35:06.408Z,20.27
2023-09-13T18:37:34.853Z,18.58
2023-09-13T18:40:01.720Z,15.93
2023-09-13T18:42:28.579Z,19.10
2023-09-13T18:44:56.790Z,16.23
2023-09-13T18:47:23.793Z,18.13
2023-09-13T18:49:50.451Z,17.38
2023-09-13T18:52:17.163Z,15.82
2023-09-13T18:54:43.948Z,16.52
2023-09-13T18:57:11.274Z,19.40
2023-09-13T18:59:40.939Z,15.43
2023-09-13T19:02:12.244Z,16.40
2023-09-13T19:04:39.150Z,20.10
2023-09-13T19:07:10.264Z,17.63
2023-09-13T19:09:39.856Z,24.38
2023-09-13T19:12:07.448Z,17.48
2023-09-13T19:14:34.218Z,18.90
2023-09-13T19:17:00.961Z,16.63
2023-09-13T19:19:27.690Z,19.55
2023-09-13T19:21:54.537Z,16.85
2023-09-13T19:24:21.371Z,21.17
2023-09-13T19:26:48.201Z,21.63
2023-09-13T19:29:14.980Z,28.40
2023-09-13T19:31:41.770Z,25.02
2023-09-13T19:34:08.550Z,23.90
2023-09-13T19:36:35.313Z,21.50
2023-09-13T19:39:03.613Z,25.95
2023-09-13T19:41:30.355Z,22.65
2023-09-13T19:43:57.555Z,20.65
2023-09-13T19:46:24.524Z,23.65
2023-09-13T19:48:51.266Z,23.70
2023-09-13T19:51:18.094Z,23.40
2023-09-13T19:53:45.005Z,22.95
2023-09-13T19:56:11.882Z,23.77
2023-09-13T19:58:40.614Z,22.08
2023-09-13T20:01:09.234Z,22.33
2023-09-13T20:03:36.641Z,24.30
2023-09-13T20:06:15.361Z,21.92
2023-09-13T20:08:42.132Z,22.55
2023-09-13T20:11:09.663Z,24.60
2023-09-13T20:13:40.816Z,21.70
2023-09-13T20:16:08.229Z,22.83
2023-09-13T20:18:34.982Z,22.33
2023-09-13T20:21:04.677Z,27.20
2023-09-13T20:23:31.602Z,21.73
2023-09-13T20:25:58.749Z,20.25
2023-09-13T20:28:27.260Z,21.10
2023-09-13T20:30:55.397Z,22.48
2023-09-13T20:33:22.457Z,21.33
2023-09-13T20:35:50.038Z,21.98
2023-09-13T20:38:17.824Z,24.60
2023-09-13T20:40:44.597Z,21.38
2023-09-13T20:43:11.752Z,17.92
2023-09-13T20:45:39.424Z,23.55
2023-09-13T20:48:06.782Z,24.85
2023-09-13T20:50:33.532Z,19.63
2023-09-13T20:53:00.318Z,24.45
2023-09-13T20:55:27.085Z,22.83
2023-09-13T20:57:53.839Z,22.52
2023-09-13T21:00:20.636Z,21.92
2023-09-13T21:02:47.383Z,22.23
2023-09-13T21:05:14.075Z,19.92
2023-09-13T21:07:40.872Z,22.75
2023-09-13T21:10:07.780Z,29.33
2023-09-13T21:12:34.577Z,21.25
2023-09-13T21:15:01.226Z,21.38
2023-09-13T21:17:27.989Z,20.75
2023-09-13T21:19:55.095Z,27.77
2023-09-13T21:22:21.992Z,21.55
2023-09-13T21:24:50.376Z,20.83
2023-09-13T21:27:17.210Z,19.95
2023-09-13T21:29:44.005Z,25.90
2023-09-13T21:32:10.827Z,21.55
2023-09-13T21:34:55.021Z,17.63
2023-09-13T21:37:26.352Z,20.23
2023-09-13T21:39:53.727Z,19.50
2023-09-13T21:42:22.362Z,21.73
2023-09-13T21:44:50.904Z,23.20
2023-09-13T21:47:17.660Z,17.00
2023-09-13T21:49:44.413Z,20.80
2023-09-13T21:52:11.116Z,18.67
2023-09-13T21:54:43.745Z,19.30
2023-09-13T21:57:10.717Z,21.13
2023-09-13T21:59:37.519Z,17.63
2023-09-13T22:02:04.798Z,23.83
2023-09-13T22:04:31.992Z,22.48
2023-09-13T22:06:58.926Z,16.73
2023-09-13T22:09:25.767Z,19.35
2023-09-13T22:11:52.756Z,17.85
2023-09-13T22:14:19.492Z,19.35
2023-09-13T22:16:46.271Z,18.60
2023-09-13T22:19:13.195Z,19.10
2023-09-13T22:21:40.079Z,19.98
2023-09-13T22:24:07.024Z,18.05
2023-09-13T22:26:33.731Z,18.92
2023-09-13T22:29:00.524Z,21.58
2023-09-13T22:31:27.331Z,17.83
2023-09-13T22:33:56.432Z,19.63
2023-09-13T22:36:23.340Z,18.48
2023-09-13T22:38:58.438Z,15.77
2023-09-13T22:41:34.874Z,19.33
2023-09-13T22:44:01.769Z,18.23
2023-09-13T22:46:28.649Z,17.63
2023-09-13T22:48:55.564Z,15.02
2023-09-13T22:51:22.377Z,16.98
2023-09-13T22:53:49.225Z,20.83
2023-09-13T22:56:15.999Z,20.35
2023-09-13T22:58:43.079Z,19.20
2023-09-13T23:01:11.257Z,18.90
2023-09-13T23:03:45.232Z,19.88
2023-09-13T23:06:13.167Z,18.85
2023-09-13T23:08:40.386Z,19.08
2023-09-13T23:11:07.550Z,22.45
2023-09-13T23:13:37.522Z,19.88
2023-09-13T23:16:06.475Z,22.35
2023-09-13T23:18:35.075Z,16.70
2023-09-13T23:21:02.600Z,19.33
2023-09-13T23:23:31.064Z,19.48
2023-09-13T23:26:02.469Z,24.02
2023-09-13T23:28:29.573Z,22.15
2023-09-13T23:31:07.957Z,18.08
2023-09-13T23:33:36.581Z,22.55
2023-09-13T23:36:04.580Z,18.77
2023-09-13T23:38:32.175Z,20.77
2023-09-13T23:41:06.516Z,21.45
2023-09-13T23:43:37.231Z,18.70
2023-09-13T23:46:05.139Z,21.67
2023-09-13T23:48:33.291Z,20.30
2023-09-13T23:51:00.162Z,20.40
2023-09-13T23:53:28.243Z,22.45
2023-09-13T23:55:55.050Z,20.92
2023-09-13T23:58:21.744Z,25.23
